createdAt,value
2018-07-06T00:00:19.442Z,18.97
2018-07-06T00:02:58.202Z,18.99
2018-07-06T00:05:36.858Z,18.97
2018-07-06T00:08:15.663Z,18.94
2018-07-06T00:10:54.385Z,18.90
2018-07-06T00:13:33.238Z,18.87
2018-07-06T00:16:12.264Z,18.89
2018-07-06T00:21:41.215Z,18.83
2018-07-06T00:24:19.990Z,18.79
2018-07-06T00:26:58.531Z,18.82
2018-07-06T00:29:37.343Z,18.85
2018-07-06T00:32:16.171Z,18.84
2018-07-06T00:34:54.738Z,18.85
2018-07-06T00:37:33.233Z,18.83
2018-07-06T00:40:11.891Z,18.78
2018-07-06T00:42:50.549Z,18.79
2018-07-06T00:45:29.158Z,18.74
2018-07-06T00:48:07.710Z,18.70
2018-07-06T00:50:46.298Z,18.61
2018-07-06T00:53:25.282Z,18.53
2018-07-06T00:56:03.953Z,18.45
2018-07-06T00:58:42.672Z,18.33
2018-07-06T01:01:23.261Z,18.30
2018-07-06T01:04:02.174Z,18.25
2018-07-06T01:06:40.747Z,18.17
2018-07-06T01:09:19.290Z,18.15
2018-07-06T01:12:02.506Z,18.05
2018-07-06T01:14:41.089Z,18.03
2018-07-06T01:17:19.567Z,18.01
2018-07-06T01:19:58.275Z,17.92
2018-07-06T01:22:36.912Z,17.89
2018-07-06T01:25:15.556Z,17.87
2018-07-06T01:27:54.210Z,17.88
2018-07-06T01:30:32.873Z,17.90
2018-07-06T01:33:12.095Z,17.92
2018-07-06T01:35:50.926Z,17.96
2018-07-06T01:38:29.590Z,17.98
2018-07-06T01:41:10.114Z,17.98
2018-07-06T01:43:48.786Z,17.98
2018-07-06T01:46:27.418Z,17.99
2018-07-06T01:49:06.295Z,17.93
2018-07-06T01:51:44.830Z,17.88
2018-07-06T01:54:23.575Z,17.76
2018-07-06T01:57:02.372Z,17.66
2018-07-06T01:59:41.319Z,17.58
2018-07-06T02:02:20.015Z,17.63
2018-07-06T02:04:58.698Z,17.68
2018-07-06T02:07:37.510Z,17.74
2018-07-06T02:10:16.267Z,17.77
2018-07-06T02:12:55.050Z,17.78
2018-07-06T02:15:33.769Z,17.83
2018-07-06T02:18:12.575Z,17.86
2018-07-06T02:20:51.124Z,17.86
2018-07-06T02:23:29.778Z,17.87
2018-07-06T02:26:08.525Z,17.81
2018-07-06T02:28:47.149Z,17.79
2018-07-06T02:31:25.832Z,17.73
2018-07-06T02:34:04.641Z,17.70
2018-07-06T02:36:43.321Z,17.75
2018-07-06T02:39:22.020Z,17.77
2018-07-06T02:42:00.870Z,17.76
2018-07-06T02:44:39.642Z,17.76
2018-07-06T02:47:18.264Z,17.79
2018-07-06T02:49:56.942Z,17.86
2018-07-06T02:52:35.406Z,17.95
2018-07-06T02:55:14.168Z,18.00
2018-07-06T02:57:52.739Z,18.03
2018-07-06T03:00:31.519Z,18.08
2018-07-06T03:03:10.187Z,18.10
2018-07-06T03:05:49.019Z,18.08
2018-07-06T03:08:27.865Z,18.01
2018-07-06T03:11:06.642Z,17.98
2018-07-06T03:13:45.343Z,17.98
2018-07-06T03:16:23.922Z,17.98
2018-07-06T03:19:03.056Z,17.93
2018-07-06T03:21:42.184Z,17.86
2018-07-06T03:24:20.840Z,17.75
2018-07-06T03:26:59.528Z,17.66
2018-07-06T03:29:38.479Z,17.51
2018-07-06T03:32:17.159Z,17.49
2018-07-06T03:34:55.864Z,17.41
2018-07-06T03:37:34.534Z,17.32
2018-07-06T03:40:13.399Z,17.24
2018-07-06T03:42:52.318Z,17.19
2018-07-06T03:45:30.999Z,17.05
2018-07-06T03:48:09.772Z,17.03
2018-07-06T03:50:48.529Z,16.98
2018-07-06T03:53:27.167Z,16.93
2018-07-06T03:56:05.622Z,16.90
2018-07-06T03:58:44.244Z,16.89
2018-07-06T04:01:23.009Z,16.90
2018-07-06T04:04:01.730Z,16.84
2018-07-06T04:06:40.502Z,16.80
2018-07-06T04:09:19.534Z,16.75
2018-07-06T04:11:58.000Z,16.70
2018-07-06T04:14:36.866Z,16.63
2018-07-06T04:17:15.576Z,16.58
2018-07-06T04:19:54.344Z,16.53
2018-07-06T04:22:32.991Z,16.52
2018-07-06T04:25:11.735Z,16.53
2018-07-06T04:27:50.631Z,16.57
2018-07-06T04:30:29.388Z,16.57
2018-07-06T04:33:08.036Z,16.54
2018-07-06T04:35:46.651Z,16.57
2018-07-06T04:38:25.492Z,16.59
2018-07-06T04:41:04.204Z,16.63
2018-07-06T04:43:42.903Z,16.70
2018-07-06T04:46:23.239Z,16.77
2018-07-06T04:49:02.043Z,16.84
2018-07-06T04:51:40.622Z,16.81
2018-07-06T04:54:19.530Z,16.80
2018-07-06T04:56:58.140Z,16.89
2018-07-06T04:59:36.892Z,16.94
2018-07-06T05:02:15.731Z,17.03
2018-07-06T05:04:54.613Z,16.92
2018-07-06T05:07:33.439Z,17.02
2018-07-06T05:10:12.072Z,17.04
2018-07-06T05:12:50.659Z,16.91
2018-07-06T05:15:29.207Z,16.89
2018-07-06T05:18:07.911Z,16.94
2018-07-06T05:20:46.595Z,16.88
2018-07-06T05:23:25.217Z,16.77
2018-07-06T05:26:03.953Z,16.81
2018-07-06T05:28:42.708Z,16.79
2018-07-06T05:31:21.502Z,16.83
2018-07-06T05:34:00.196Z,16.75
2018-07-06T05:36:38.769Z,16.81
2018-07-06T05:39:17.531Z,16.81
2018-07-06T05:41:56.353Z,16.84
2018-07-06T05:44:35.107Z,16.91
2018-07-06T05:47:13.737Z,16.90
2018-07-06T05:49:52.314Z,17.00
2018-07-06T05:52:30.982Z,17.03
2018-07-06T05:55:09.859Z,16.87
2018-07-06T05:57:48.610Z,16.85
2018-07-06T06:00:27.161Z,16.75
2018-07-06T06:03:05.753Z,16.79
2018-07-06T06:05:45.171Z,16.92
2018-07-06T06:08:11.474Z,17.06
2018-07-06T06:10:38.805Z,17.15
2018-07-06T06:13:06.130Z,17.16
2018-07-06T06:15:33.405Z,17.18
2018-07-06T06:18:02.823Z,17.11
2018-07-06T06:20:30.098Z,17.13
2018-07-06T06:22:57.373Z,17.28
2018-07-06T06:25:24.778Z,17.55
2018-07-06T06:27:52.055Z,17.75
2018-07-06T06:30:19.379Z,17.97
2018-07-06T06:32:46.695Z,18.20
2018-07-06T06:35:14.007Z,18.39
2018-07-06T06:37:41.565Z,18.48
2018-07-06T06:40:08.858Z,18.44
2018-07-06T06:42:36.933Z,18.38
2018-07-06T06:45:04.229Z,18.37
2018-07-06T06:47:31.518Z,18.66
2018-07-06T06:49:58.815Z,18.85
2018-07-06T06:52:26.075Z,18.77
2018-07-06T06:54:53.432Z,18.90
2018-07-06T06:57:20.681Z,18.99
2018-07-06T06:59:47.972Z,19.07
2018-07-06T07:02:15.232Z,19.31
2018-07-06T07:04:44.266Z,19.67
2018-07-06T07:07:11.589Z,20.03
2018-07-06T07:09:40.179Z,19.83
2018-07-06T07:12:08.747Z,20.02
2018-07-06T07:14:36.360Z,19.86
2018-07-06T07:17:03.686Z,19.84
2018-07-06T07:19:31.006Z,19.70
2018-07-06T07:21:58.901Z,19.66
2018-07-06T07:24:26.316Z,19.66
2018-07-06T07:26:53.609Z,19.88
2018-07-06T07:29:20.932Z,19.72
2018-07-06T07:31:48.174Z,19.72
2018-07-06T07:34:15.469Z,19.93
2018-07-06T07:36:42.753Z,20.03
2018-07-06T07:39:09.998Z,19.85
2018-07-06T07:41:37.261Z,19.94
2018-07-06T07:44:04.796Z,19.84
2018-07-06T07:46:32.154Z,20.00
2018-07-06T07:48:59.366Z,20.12
2018-07-06T07:52:08.142Z,20.03
2018-07-06T07:54:52.221Z,20.02
2018-07-06T07:57:19.738Z,20.18
2018-07-06T07:59:47.262Z,20.46
2018-07-06T08:02:15.058Z,20.59
2018-07-06T08:04:42.403Z,20.75
2018-07-06T08:07:09.733Z,20.91
2018-07-06T08:09:37.035Z,20.84
2018-07-06T08:12:04.811Z,20.96
2018-07-06T08:14:32.192Z,21.00
2018-07-06T08:16:59.574Z,21.78
2018-07-06T08:19:26.839Z,22.69
2018-07-06T08:21:54.673Z,23.04
2018-07-06T08:24:22.068Z,22.88
2018-07-06T08:26:49.399Z,22.54
2018-07-06T08:29:17.570Z,22.05
2018-07-06T08:31:45.168Z,21.73
2018-07-06T08:34:23.736Z,22.33
2018-07-06T08:37:33.590Z,22.56
2018-07-06T08:40:00.839Z,22.25
2018-07-06T08:42:29.924Z,21.76
2018-07-06T08:44:58.067Z,21.43
2018-07-06T08:47:25.366Z,21.67
2018-07-06T08:49:53.248Z,21.82
2018-07-06T08:52:20.531Z,21.92
2018-07-06T08:54:48.883Z,21.87
2018-07-06T08:57:16.139Z,22.44
2018-07-06T08:59:43.363Z,22.41
2018-07-06T09:02:10.823Z,22.57
2018-07-06T09:04:38.106Z,22.45
2018-07-06T09:07:05.350Z,22.54
2018-07-06T09:09:32.611Z,22.82
2018-07-06T09:11:59.880Z,23.59
2018-07-06T09:14:27.189Z,24.10
2018-07-06T09:16:54.459Z,24.45
2018-07-06T09:19:21.793Z,24.19
2018-07-06T09:21:49.522Z,25.03
2018-07-06T09:24:16.972Z,25.43
2018-07-06T09:26:44.207Z,25.69
2018-07-06T09:29:11.771Z,25.62
2018-07-06T09:31:39.004Z,25.85
2018-07-06T09:34:06.535Z,25.20
2018-07-06T09:36:33.783Z,25.90
2018-07-06T09:39:01.046Z,26.14
2018-07-06T09:41:28.273Z,26.53
2018-07-06T09:43:55.536Z,26.70
2018-07-06T09:46:23.904Z,26.72
2018-07-06T09:48:51.146Z,26.19
2018-07-06T09:51:18.374Z,25.31
2018-07-06T09:53:45.637Z,25.25
2018-07-06T09:56:12.870Z,26.52
2018-07-06T09:58:40.170Z,26.75
2018-07-06T10:01:07.438Z,25.84
2018-07-06T10:03:34.669Z,25.60
2018-07-06T10:06:01.923Z,25.86
2018-07-06T10:08:29.235Z,25.66
2018-07-06T10:10:56.591Z,25.71
2018-07-06T10:13:23.874Z,26.07
2018-07-06T10:15:51.115Z,25.08
2018-07-06T10:18:18.397Z,24.72
2018-07-06T10:20:45.656Z,25.68
2018-07-06T10:23:12.946Z,25.73
2018-07-06T10:25:40.213Z,25.39
2018-07-06T10:28:18.315Z,24.93
2018-07-06T10:31:22.932Z,25.03
2018-07-06T10:33:50.263Z,24.87
2018-07-06T10:36:17.475Z,24.77
2018-07-06T10:38:44.699Z,25.45
2018-07-06T10:41:11.982Z,25.06
2018-07-06T10:43:39.198Z,25.39
2018-07-06T10:46:06.536Z,25.69
2018-07-06T10:48:33.760Z,25.61
2018-07-06T10:51:01.021Z,24.76
2018-07-06T10:53:28.238Z,25.13
2018-07-06T10:55:55.507Z,26.37
2018-07-06T10:58:22.874Z,27.45
2018-07-06T11:00:50.383Z,26.96
2018-07-06T11:03:17.642Z,26.60
2018-07-06T11:05:44.958Z,26.19
2018-07-06T11:08:12.262Z,26.26
2018-07-06T11:10:39.522Z,26.34
2018-07-06T11:13:06.789Z,26.15
2018-07-06T11:15:34.055Z,26.18
2018-07-06T11:18:03.662Z,25.82
2018-07-06T11:20:30.925Z,26.80
2018-07-06T11:22:58.172Z,26.85
2018-07-06T11:25:25.479Z,26.59
2018-07-06T11:27:52.781Z,26.54
2018-07-06T11:30:20.024Z,26.23
2018-07-06T11:32:47.272Z,26.06
2018-07-06T11:35:14.504Z,26.75
2018-07-06T11:37:41.766Z,26.57
2018-07-06T11:40:08.987Z,26.69
2018-07-06T11:42:36.231Z,26.90
2018-07-06T11:45:03.605Z,26.73
2018-07-06T11:47:30.787Z,25.31
2018-07-06T11:49:58.014Z,25.91
2018-07-06T11:52:25.303Z,26.11
2018-07-06T11:54:52.603Z,26.87
2018-07-06T11:57:19.850Z,27.00
2018-07-06T11:59:47.101Z,25.56
2018-07-06T12:02:14.379Z,25.07
2018-07-06T12:04:41.588Z,24.78
2018-07-06T12:07:08.859Z,25.27
2018-07-06T12:09:49.341Z,26.10
2018-07-06T12:12:16.641Z,26.43
2018-07-06T12:14:43.902Z,26.88
2018-07-06T12:17:11.167Z,26.01
2018-07-06T12:19:38.464Z,24.86
2018-07-06T12:22:05.799Z,24.94
2018-07-06T12:24:33.074Z,25.35
2018-07-06T12:27:00.355Z,25.31
2018-07-06T12:29:27.647Z,24.99
2018-07-06T12:31:54.897Z,25.71
2018-07-06T12:34:22.172Z,25.97
2018-07-06T12:36:49.427Z,26.13
2018-07-06T12:39:16.699Z,25.51
2018-07-06T12:41:43.987Z,26.14
2018-07-06T12:44:11.255Z,26.24
2018-07-06T12:46:38.470Z,26.53
2018-07-06T12:49:05.722Z,26.33
2018-07-06T12:51:32.964Z,26.72
2018-07-06T12:54:00.255Z,27.02
2018-07-06T12:56:27.515Z,26.57
2018-07-06T12:58:54.983Z,26.10
2018-07-06T13:01:22.237Z,26.03
2018-07-06T13:03:49.514Z,25.75
2018-07-06T13:06:16.875Z,25.72
2018-07-06T13:08:44.223Z,25.75
2018-07-06T13:11:12.196Z,25.61
2018-07-06T13:13:40.168Z,25.69
2018-07-06T13:16:07.609Z,25.65
2018-07-06T13:18:34.982Z,25.86
2018-07-06T13:21:02.339Z,25.75
2018-07-06T13:23:29.635Z,25.58
2018-07-06T13:25:57.276Z,25.61
2018-07-06T13:28:24.551Z,25.91
2018-07-06T13:30:51.847Z,26.32
2018-07-06T13:33:19.077Z,26.25
2018-07-06T13:35:46.462Z,25.96
2018-07-06T13:38:16.682Z,26.64
2018-07-06T13:40:43.996Z,26.65
2018-07-06T13:43:11.243Z,26.33
2018-07-06T13:45:38.513Z,25.42
2018-07-06T13:48:05.808Z,25.11
2018-07-06T13:50:33.427Z,25.83
2018-07-06T13:53:00.865Z,25.98
2018-07-06T13:55:28.095Z,26.26
2018-07-06T13:57:55.384Z,25.91
2018-07-06T14:00:22.746Z,26.33
2018-07-06T14:02:50.088Z,25.94
2018-07-06T14:05:17.361Z,25.39
2018-07-06T14:07:48.515Z,25.61
2018-07-06T14:10:16.008Z,25.53
2018-07-06T14:12:43.599Z,25.31
2018-07-06T14:15:11.106Z,25.07
2018-07-06T14:17:38.603Z,25.32
2018-07-06T14:20:06.328Z,24.93
2018-07-06T14:22:33.820Z,24.73
2018-07-06T14:25:01.257Z,24.84
2018-07-06T14:27:28.763Z,24.84
2018-07-06T14:29:56.430Z,24.89
2018-07-06T14:32:24.698Z,24.87
2018-07-06T14:34:52.471Z,24.56
2018-07-06T14:37:19.934Z,24.58
2018-07-06T14:39:47.489Z,24.72
2018-07-06T14:42:14.743Z,24.65
2018-07-06T14:44:42.040Z,24.42
2018-07-06T14:47:09.332Z,24.62
2018-07-06T14:49:37.055Z,24.51
2018-07-06T14:52:04.336Z,24.59
2018-07-06T14:54:31.598Z,24.56
2018-07-06T14:56:58.876Z,24.47
2018-07-06T14:59:26.206Z,24.50
2018-07-06T15:01:53.520Z,24.66
2018-07-06T15:04:20.774Z,24.48
2018-07-06T15:06:48.176Z,24.36
2018-07-06T15:09:15.352Z,24.58
2018-07-06T15:11:42.652Z,24.73
2018-07-06T15:14:09.912Z,24.74
2018-07-06T15:16:37.192Z,24.80
2018-07-06T15:19:04.803Z,24.37
2018-07-06T15:21:32.085Z,24.22
2018-07-06T15:23:59.326Z,24.28
2018-07-06T15:26:26.616Z,24.72
2018-07-06T15:28:53.882Z,24.76
2018-07-06T15:31:21.157Z,25.10
2018-07-06T15:33:48.610Z,24.89
2018-07-06T15:36:16.120Z,24.82
2018-07-06T15:38:43.584Z,24.36
2018-07-06T15:41:10.985Z,23.84
2018-07-06T15:43:38.404Z,23.85
2018-07-06T15:46:05.944Z,24.15
2018-07-06T15:48:33.827Z,23.97
2018-07-06T15:51:01.288Z,23.87
2018-07-06T15:53:28.859Z,23.97
2018-07-06T15:55:56.357Z,24.04
2018-07-06T15:58:23.828Z,23.83
2018-07-06T16:00:51.344Z,23.83
2018-07-06T16:03:18.780Z,23.84
2018-07-06T16:05:46.339Z,23.96
2018-07-06T16:08:13.807Z,23.85
2018-07-06T16:10:41.226Z,24.02
2018-07-06T16:13:08.497Z,23.47
2018-07-06T16:15:35.739Z,23.45
2018-07-06T16:18:04.079Z,23.14
2018-07-06T16:20:31.310Z,23.42
2018-07-06T16:22:58.560Z,23.46
2018-07-06T16:25:25.829Z,23.64
2018-07-06T16:27:53.421Z,23.65
2018-07-06T16:30:20.642Z,23.71
2018-07-06T16:32:48.024Z,23.53
2018-07-06T16:35:15.235Z,23.33
2018-07-06T16:37:42.452Z,23.17
2018-07-06T16:40:09.758Z,23.18
2018-07-06T16:42:36.988Z,23.09
2018-07-06T16:45:04.267Z,23.23
2018-07-06T16:47:31.500Z,23.27
2018-07-06T16:49:58.835Z,23.28
2018-07-06T16:52:26.144Z,23.37
2018-07-06T16:54:53.498Z,23.33
2018-07-06T16:57:20.852Z,23.51
2018-07-06T16:59:48.323Z,23.53
2018-07-06T17:02:15.708Z,23.61
2018-07-06T17:04:43.111Z,23.55
2018-07-06T17:07:10.376Z,23.59
2018-07-06T17:09:37.681Z,23.75
2018-07-06T17:12:04.943Z,23.97
2018-07-06T17:14:32.232Z,23.98
2018-07-06T17:16:59.636Z,23.87
2018-07-06T17:19:27.089Z,23.64
2018-07-06T17:21:55.793Z,23.36
2018-07-06T17:24:23.275Z,23.17
2018-07-06T17:26:50.669Z,23.07
2018-07-06T17:29:19.183Z,22.88
2018-07-06T17:31:46.715Z,22.94
2018-07-06T17:34:14.268Z,22.98
2018-07-06T17:36:41.662Z,22.94
2018-07-06T17:39:09.116Z,23.00
2018-07-06T17:41:36.754Z,23.04
2018-07-06T17:44:04.220Z,23.08
2018-07-06T17:46:31.621Z,22.97
2018-07-06T17:48:59.137Z,22.93
2018-07-06T17:51:26.638Z,22.87
2018-07-06T17:53:54.033Z,22.84
2018-07-06T17:56:21.488Z,22.72
2018-07-06T17:58:48.756Z,22.82
2018-07-06T18:01:16.252Z,22.91
2018-07-06T18:03:43.502Z,22.92
2018-07-06T18:06:10.729Z,22.82
2018-07-06T18:08:38.152Z,22.74
2018-07-06T18:11:05.537Z,22.70
2018-07-06T18:13:32.907Z,22.76
2018-07-06T18:16:00.240Z,22.66
2018-07-06T18:18:27.570Z,22.53
2018-07-06T18:20:55.043Z,22.41
2018-07-06T18:23:23.922Z,22.33
2018-07-06T18:25:51.167Z,22.24
2018-07-06T18:28:19.020Z,22.13
2018-07-06T18:30:46.531Z,22.15
2018-07-06T18:33:14.036Z,22.10
2018-07-06T18:35:41.943Z,22.02
2018-07-06T18:38:10.038Z,21.96
2018-07-06T18:40:37.466Z,21.91
2018-07-06T18:43:05.161Z,21.92
2018-07-06T18:45:32.631Z,21.81
2018-07-06T18:47:59.897Z,21.75
2018-07-06T18:50:27.601Z,21.69
2018-07-06T18:52:54.976Z,21.60
2018-07-06T18:55:22.486Z,21.48
2018-07-06T18:57:51.033Z,21.46
2018-07-06T19:00:18.945Z,21.39
2018-07-06T19:02:48.394Z,21.29
2018-07-06T19:05:16.133Z,21.21
2018-07-06T19:07:44.774Z,21.16
2018-07-06T19:10:13.843Z,21.13
2018-07-06T19:12:41.689Z,21.09
2018-07-06T19:15:09.372Z,21.05
2018-07-06T19:17:39.332Z,20.97
2018-07-06T19:20:07.093Z,20.90
2018-07-06T19:22:34.775Z,20.80
2018-07-06T19:25:05.012Z,20.72
2018-07-06T19:27:32.480Z,20.68
2018-07-06T19:29:59.880Z,20.61
2018-07-06T19:32:27.348Z,20.58
2018-07-06T19:34:54.821Z,20.54
2018-07-06T19:37:22.761Z,20.49
2018-07-06T19:39:50.140Z,20.40
2018-07-06T19:42:17.575Z,20.35
2018-07-06T19:44:45.000Z,20.29
2018-07-06T19:47:12.395Z,20.24
2018-07-06T19:49:40.453Z,20.23
2018-07-06T19:52:07.808Z,20.15
2018-07-06T19:54:36.765Z,20.08
2018-07-06T19:57:04.946Z,20.01
2018-07-06T19:59:32.407Z,19.96
2018-07-06T20:01:59.764Z,19.94
2018-07-06T20:04:27.039Z,19.91
2018-07-06T20:06:54.426Z,19.81
2018-07-06T20:09:21.807Z,19.74
2018-07-06T20:11:49.935Z,19.68
2018-07-06T20:14:17.276Z,19.66
2018-07-06T20:16:45.457Z,19.63
2018-07-06T20:19:12.825Z,19.55
2018-07-06T20:21:40.177Z,19.51
2018-07-06T20:24:07.558Z,19.45
2018-07-06T20:26:34.830Z,19.39
2018-07-06T20:29:02.228Z,19.33
2018-07-06T20:31:29.587Z,19.30
2018-07-06T20:33:56.949Z,19.22
2018-07-06T20:36:24.279Z,19.18
2018-07-06T20:38:51.673Z,19.13
2018-07-06T20:41:18.929Z,19.10
2018-07-06T20:43:46.247Z,19.06
2018-07-06T20:46:13.686Z,19.01
2018-07-06T20:48:40.981Z,18.98
2018-07-06T20:51:08.291Z,18.89
2018-07-06T20:53:35.689Z,18.88
2018-07-06T20:56:02.979Z,18.84
2018-07-06T20:58:30.277Z,18.81
2018-07-06T21:00:58.369Z,18.76
2018-07-06T21:03:25.651Z,18.72
2018-07-06T21:05:53.083Z,18.65
2018-07-06T21:08:20.425Z,18.60
2018-07-06T21:10:47.704Z,18.49
2018-07-06T21:13:15.011Z,18.46
2018-07-06T21:15:43.984Z,18.42
2018-07-06T21:18:11.273Z,18.34
2018-07-06T21:20:38.624Z,18.16
2018-07-06T21:23:06.006Z,17.99
2018-07-06T21:25:34.965Z,17.84
2018-07-06T21:28:02.436Z,17.71
2018-07-06T21:30:29.834Z,17.62
2018-07-06T21:32:57.206Z,17.57
2018-07-06T21:35:24.867Z,17.50
2018-07-06T21:37:52.248Z,17.43
2018-07-06T21:40:19.774Z,17.29
2018-07-06T21:42:47.548Z,17.24
2018-07-06T21:45:14.928Z,17.14
2018-07-06T21:47:42.184Z,17.06
2018-07-06T21:50:09.955Z,16.95
2018-07-06T21:52:37.386Z,16.91
2018-07-06T21:55:04.739Z,16.82
2018-07-06T21:57:32.129Z,16.77
2018-07-06T21:59:59.482Z,16.71
2018-07-06T22:02:26.910Z,16.63
2018-07-06T22:04:54.282Z,16.53
2018-07-06T22:07:22.427Z,16.46
2018-07-06T22:09:49.767Z,16.37
2018-07-06T22:12:17.116Z,16.28
2018-07-06T22:14:44.486Z,16.24
2018-07-06T22:17:11.861Z,16.19
2018-07-06T22:19:39.251Z,16.15
2018-07-06T22:22:06.704Z,16.05
2018-07-06T22:24:34.039Z,15.95
2018-07-06T22:27:02.260Z,15.91
2018-07-06T22:29:29.622Z,15.88
2018-07-06T22:31:56.953Z,15.83
2018-07-06T22:34:24.398Z,15.76
2018-07-06T22:36:52.087Z,15.72
2018-07-06T22:39:19.516Z,15.76
2018-07-06T22:41:46.938Z,15.79
2018-07-06T22:44:14.258Z,15.81
2018-07-06T22:46:41.554Z,15.75
2018-07-06T22:49:08.937Z,15.71
2018-07-06T22:51:36.270Z,15.63
2018-07-06T22:54:03.650Z,15.50
2018-07-06T22:56:31.016Z,15.38
2018-07-06T22:58:58.494Z,15.27
2018-07-06T23:01:25.862Z,15.16
2018-07-06T23:03:53.173Z,15.03
2018-07-06T23:06:21.647Z,14.89
2018-07-06T23:08:49.107Z,14.79
2018-07-06T23:11:16.411Z,14.71
2018-07-06T23:13:43.798Z,14.65
2018-07-06T23:16:11.208Z,14.56
2018-07-06T23:18:38.737Z,14.43
2018-07-06T23:21:06.426Z,14.20
2018-07-06T23:23:33.703Z,14.09
2018-07-06T23:26:00.950Z,13.93
2018-07-06T23:28:28.202Z,13.81
2018-07-06T23:30:55.445Z,13.60
2018-07-06T23:33:22.661Z,13.62
2018-07-06T23:35:51.063Z,13.61
2018-07-06T23:38:18.385Z,13.56
2018-07-06T23:40:45.838Z,13.56
2018-07-06T23:43:13.075Z,13.57
2018-07-06T23:45:40.306Z,13.50
2018-07-06T23:48:07.542Z,13.41
2018-07-06T23:50:34.799Z,13.37
2018-07-06T23:53:02.069Z,13.37
2018-07-06T23:55:29.294Z,13.34
2018-07-06T23:57:56.546Z,13.37
